Aviation Digital Data Service (ADDS)

Output produced by METARs form (0935 UTC 28 July 2021)
found at http://aviationweather.gov/metar/data/
 
METAR text: KRDU 280851Z 23004KT 10SM FEW120 SCT250 23/23 A2998 RMK AO2 SLP147 T02330233 58009
Conditions at: KRDU (RALEIGH/DURHAM , NC, US) observed 0851 UTC 28 July 2021
Temperature: 23.3°C (74°F)
Dewpoint: 23.3°C (74°F) [RH = 100%]
Pressure (altimeter): 29.98 inches Hg (1015.3 mb)
[Sea-level pressure: 1014.7 mb]
Winds: from the SW (230 degrees) at 5 MPH (4 knots; 2.1 m/s)
Visibility: 10 or more miles (16+ km)
Ceiling: at least 12,000 feet AGL
Clouds: few clouds at 12000 feet AGL
scattered clouds at 25000 feet AGL
Weather: no significant weather observed at this time

METAR text: KRDU 280751Z 28003KT 10SM FEW100 BKN250 24/23 A3000 RMK AO2 SLP153 T02390233
Conditions at: KRDU (RALEIGH/DURHAM , NC, US) observed 0751 UTC 28 July 2021
Temperature: 23.9°C (75°F)
Dewpoint: 23.3°C (74°F) [RH = 96%]
Pressure (altimeter): 30.00 inches Hg (1016.0 mb)
[Sea-level pressure: 1015.3 mb]
Winds: from the W (280 degrees) at 3 MPH (3 knots; 1.5 m/s)
Visibility: 10 or more miles (16+ km)
Ceiling: 25000 feet AGL
Clouds: few clouds at 10000 feet AGL
broken clouds at 25000 feet AGL
Weather: no significant weather observed at this time

Forecast for: KRDU (RALEIGH/DURHAM , NC, US)
Text: KRDU 280540Z 2806/2906 21003KT P6SM BKN250
Forecast period: 0600 UTC 28 July 2021 to 0600 UTC 29 July 2021
Forecast type: FROM: standard forecast or significant change
Winds: from the SSW (210 degrees) at 3 MPH (3 knots; 1.5 m/s)
Visibility: 6 or more miles (10+ km)
Ceiling: 25000 feet AGL
Clouds: broken clouds at 25000 feet AGL
Weather: no significant weather forecast for this period
Text: TEMPO 2810/2812 00000KT 5SM BR SCT003
Forecast period: 1000 to 1200 UTC 28 July 2021
Forecast type: TEMPORARY: The following changes expected for less than half the time period
Winds: calm
Visibility: 5 miles (8 km)
Ceiling: at least 12,000 feet AGL
Clouds: scattered clouds at 300 feet AGL
Weather: BR  (mist)